KBMI

Central Illinois Regional at Bloomington-Normal Airport

Bloomington/Normal, Illinois, USA
METAR KBMI 232156Z 28006KT 9SM OVC006 03/02 A3026 RMK AO2 SLP274 T00330022 $
Observed Flight Rules
Feb-23 @ 21:56 UTC (37 minutes ago) Instrument Flight Rules
Wind Visibility Clouds
280° at 6 knots 9 miles
  • Overcast at 600' AGL
Temperatures Readings
Current 3°C / 37°F
Dewpoint 2°C / 36°F
Humidity 93%
Altimeter 30.26" Hg
Pressure 1027.4 hPa
Elevation 267
METAR KBMI 232156Z 28006KT 9SM OVC006 03/02 A3026 RMK AO2 SLP274 T00330022 $
Observed Flight Rules
Feb-23 @ 21:56 UTC
(37 minutes ago)
IFR
Wind Visibility
280° at 6 knots 9 miles
Clouds
  • Overcast at 600' AGL
Temperature Dewpoint
3°C / 37°F 2°C / 36°F
Humidity Altimeter Pressure
93% 30.26" Hg 1027.4 hPa